createdAt,value
2023-02-03T00:00:44.639Z,11.77
2023-02-03T00:03:34.170Z,12.57
2023-02-03T00:06:03.407Z,10.35
2023-02-03T00:08:31.925Z,13.25
2023-02-03T00:11:00.848Z,10.25
2023-02-03T00:13:29.070Z,10.07
2023-02-03T00:15:57.738Z,13.48
2023-02-03T00:18:26.384Z,10.13
2023-02-03T00:20:56.338Z,8.63
2023-02-03T00:23:25.982Z,11.80
2023-02-03T00:25:54.550Z,13.90
2023-02-03T00:28:22.877Z,16.13
2023-02-03T00:30:54.217Z,9.43
2023-02-03T00:33:22.612Z,7.28
2023-02-03T00:35:52.200Z,10.25
2023-02-03T00:38:22.139Z,13.20
2023-02-03T00:40:54.060Z,9.45
2023-02-03T00:43:22.579Z,8.32
2023-02-03T00:45:51.420Z,7.40
2023-02-03T00:48:20.155Z,5.97
2023-02-03T00:50:48.963Z,4.88
2023-02-03T00:53:17.367Z,7.97
2023-02-03T00:55:47.634Z,4.95
2023-02-03T00:58:15.989Z,6.43
2023-02-03T01:00:44.639Z,9.07
2023-02-03T01:03:12.979Z,6.53
2023-02-03T01:05:41.692Z,5.47
2023-02-03T01:08:10.141Z,8.18
2023-02-03T01:10:40.008Z,7.07
2023-02-03T01:13:09.966Z,5.95
2023-02-03T01:15:38.488Z,5.07
2023-02-03T01:18:06.930Z,8.63
2023-02-03T01:20:36.581Z,6.70
2023-02-03T01:23:05.271Z,5.63
2023-02-03T01:25:33.772Z,7.25
2023-02-03T01:28:02.217Z,6.63
2023-02-03T01:30:32.329Z,6.18
2023-02-03T01:33:00.660Z,6.45
2023-02-03T01:35:29.219Z,4.40
2023-02-03T01:37:57.570Z,5.90
2023-02-03T01:40:26.447Z,4.97
2023-02-03T01:42:54.951Z,6.90
2023-02-03T01:45:23.812Z,6.03
2023-02-03T01:47:55.409Z,6.72
2023-02-03T01:50:27.113Z,7.68
2023-02-03T01:53:00.881Z,5.00
2023-02-03T01:55:31.888Z,6.45
2023-02-03T01:58:03.284Z,8.52
2023-02-03T02:00:32.047Z,7.90
2023-02-03T02:03:04.551Z,4.80
2023-02-03T02:05:36.733Z,6.95
2023-02-03T02:08:06.111Z,7.68
2023-02-03T02:10:35.214Z,6.70
2023-02-03T02:13:04.973Z,8.63
2023-02-03T02:15:39.958Z,8.38
2023-02-03T02:18:21.898Z,10.30
2023-02-03T02:21:19.769Z,10.73
2023-02-03T02:24:17.186Z,14.52
2023-02-03T02:26:53.291Z,12.10
2023-02-03T02:30:06.963Z,9.32
2023-02-03T02:33:04.136Z,7.32
2023-02-03T02:35:44.416Z,7.93
2023-02-03T02:38:17.532Z,7.82
2023-02-03T02:40:51.876Z,8.25
2023-02-03T02:43:22.738Z,6.25
2023-02-03T02:45:52.395Z,4.55
2023-02-03T02:48:25.760Z,7.97
2023-02-03T02:50:56.767Z,9.43
2023-02-03T02:55:55.029Z,6.65
2023-02-03T02:58:24.108Z,7.85
2023-02-03T03:00:52.663Z,8.30
2023-02-03T03:03:24.482Z,7.50
2023-02-03T03:05:55.650Z,9.02
2023-02-03T03:08:27.066Z,7.50
2023-02-03T03:10:56.312Z,8.30
2023-02-03T03:13:29.396Z,6.97
2023-02-03T03:15:59.580Z,7.97
2023-02-03T03:18:32.271Z,10.73
2023-02-03T03:21:06.222Z,11.02
2023-02-03T03:23:39.822Z,8.15
2023-02-03T03:26:13.269Z,11.43
2023-02-03T03:28:47.255Z,10.25
2023-02-03T03:31:16.095Z,10.35
2023-02-03T03:33:46.692Z,9.73
2023-02-03T03:36:21.339Z,10.82
2023-02-03T03:38:53.754Z,6.38
2023-02-03T03:41:28.435Z,7.57
2023-02-03T03:43:59.177Z,7.38
2023-02-03T03:46:30.360Z,8.80
2023-02-03T03:49:02.898Z,4.88
2023-02-03T03:51:33.927Z,7.13
2023-02-03T03:54:06.462Z,6.38
2023-02-03T03:56:40.415Z,5.38
2023-02-03T03:59:10.425Z,6.43
2023-02-03T04:01:39.926Z,6.38
2023-02-03T04:04:11.763Z,4.88
2023-02-03T04:06:40.846Z,6.90
2023-02-03T04:09:09.546Z,6.35
2023-02-03T04:11:56.094Z,6.70
2023-02-03T04:14:24.883Z,5.65
2023-02-03T04:16:53.224Z,6.57
2023-02-03T04:19:23.274Z,6.50
2023-02-03T04:21:51.825Z,6.38
2023-02-03T04:24:20.551Z,8.52
2023-02-03T04:26:48.984Z,7.18
2023-02-03T04:29:17.691Z,8.10
2023-02-03T04:31:46.047Z,9.18
2023-02-03T04:34:15.198Z,7.75
2023-02-03T04:36:44.818Z,8.63
2023-02-03T04:39:13.711Z,8.07
2023-02-03T04:41:43.056Z,7.47
2023-02-03T04:44:11.813Z,7.07
2023-02-03T04:46:40.261Z,8.27
2023-02-03T04:49:11.736Z,7.32
2023-02-03T04:51:40.194Z,8.32
2023-02-03T04:54:10.446Z,6.50
2023-02-03T04:56:39.185Z,7.63
2023-02-03T04:59:07.974Z,6.68
2023-02-03T05:01:36.267Z,7.65
2023-02-03T05:04:05.064Z,8.45
2023-02-03T05:06:33.444Z,7.20
2023-02-03T05:09:02.161Z,6.90
2023-02-03T05:11:32.472Z,9.90
2023-02-03T05:14:01.065Z,7.87
2023-02-03T05:16:29.690Z,7.15
2023-02-03T05:18:58.396Z,8.90
2023-02-03T05:21:26.897Z,9.30
2023-02-03T05:23:55.624Z,12.82
2023-02-03T05:26:24.100Z,15.93
2023-02-03T05:28:56.100Z,14.48
2023-02-03T05:31:25.109Z,14.52
2023-02-03T05:33:53.761Z,16.00
2023-02-03T05:36:22.412Z,16.75
2023-02-03T05:38:51.236Z,17.45
2023-02-03T05:41:37.023Z,16.85
2023-02-03T05:44:07.489Z,15.85
2023-02-03T05:46:35.932Z,15.32
2023-02-03T05:49:04.685Z,21.38
2023-02-03T05:51:33.064Z,21.45
2023-02-03T05:54:02.089Z,16.15
2023-02-03T05:56:30.427Z,20.55
2023-02-03T05:58:59.415Z,16.95
2023-02-03T06:01:29.244Z,16.65
2023-02-03T06:03:58.068Z,16.17
2023-02-03T06:06:27.472Z,17.25
2023-02-03T06:08:57.193Z,16.67
2023-02-03T06:11:25.598Z,18.17
2023-02-03T06:13:54.263Z,16.23
2023-02-03T06:16:25.077Z,17.75
2023-02-03T06:18:55.824Z,18.02
2023-02-03T06:21:24.258Z,21.63
2023-02-03T06:23:53.131Z,19.75
2023-02-03T06:26:21.683Z,20.05
2023-02-03T06:28:50.771Z,22.27
2023-02-03T06:31:19.242Z,23.30
2023-02-03T06:33:47.895Z,17.85
2023-02-03T06:36:17.748Z,15.73
2023-02-03T06:38:46.301Z,15.75
2023-02-03T06:41:15.098Z,23.85
2023-02-03T06:43:43.911Z,20.48
2023-02-03T06:46:12.751Z,18.65
2023-02-03T06:48:41.577Z,18.02
2023-02-03T06:51:09.920Z,22.65
2023-02-03T06:53:40.263Z,22.85
2023-02-03T06:56:08.978Z,18.60
2023-02-03T06:58:38.806Z,15.95
2023-02-03T07:01:07.344Z,20.15
2023-02-03T07:03:36.012Z,18.25
2023-02-03T07:06:05.291Z,15.13
2023-02-03T07:08:34.364Z,20.70
2023-02-03T07:11:04.212Z,15.35
2023-02-03T07:13:32.977Z,15.00
2023-02-03T07:16:01.617Z,14.77
2023-02-03T07:18:46.268Z,12.48
2023-02-03T07:21:15.866Z,16.15
2023-02-03T07:23:44.862Z,13.65
2023-02-03T07:26:14.875Z,13.80
2023-02-03T07:28:43.498Z,15.35
2023-02-03T07:31:12.052Z,15.20
2023-02-03T07:33:40.765Z,17.30
2023-02-03T07:36:10.041Z,22.48
2023-02-03T07:38:39.238Z,17.40
2023-02-03T07:41:07.923Z,18.42
2023-02-03T07:43:37.896Z,15.15
2023-02-03T07:46:06.375Z,20.55
2023-02-03T07:48:35.287Z,19.00
2023-02-03T07:51:03.542Z,13.70
2023-02-03T07:53:32.298Z,17.45
2023-02-03T07:56:02.214Z,16.05
2023-02-03T07:58:31.272Z,14.15
2023-02-03T08:01:01.693Z,13.73
2023-02-03T08:03:30.532Z,14.80
2023-02-03T08:05:59.081Z,13.85
2023-02-03T08:08:27.739Z,15.57
2023-02-03T08:10:56.758Z,13.93
2023-02-03T08:13:25.430Z,13.43
2023-02-03T08:15:53.938Z,17.95
2023-02-03T08:18:24.314Z,12.90
2023-02-03T08:20:52.685Z,12.68
2023-02-03T08:23:21.530Z,13.40
2023-02-03T08:25:52.561Z,12.73
2023-02-03T08:28:21.699Z,15.88
2023-02-03T08:30:50.472Z,16.70
2023-02-03T08:33:19.089Z,12.38
2023-02-03T08:35:50.338Z,13.25
2023-02-03T08:38:19.155Z,16.05
2023-02-03T08:40:47.501Z,13.73
2023-02-03T08:43:16.532Z,13.77
2023-02-03T08:45:44.934Z,12.50
2023-02-03T08:48:13.637Z,12.27
2023-02-03T08:50:44.594Z,12.75
2023-02-03T08:53:14.534Z,11.80
2023-02-03T08:55:42.939Z,11.40
2023-02-03T08:58:11.646Z,9.98
2023-02-03T09:00:40.167Z,14.18
2023-02-03T09:03:08.818Z,12.05
2023-02-03T09:05:37.794Z,16.60
2023-02-03T09:08:07.198Z,13.05
2023-02-03T09:10:37.615Z,12.88
2023-02-03T09:13:06.111Z,18.73
2023-02-03T09:15:34.402Z,14.93
2023-02-03T09:18:03.327Z,14.38
2023-02-03T09:20:31.984Z,17.50
2023-02-03T09:23:01.138Z,18.17
2023-02-03T09:25:29.376Z,18.33
2023-02-03T09:28:00.053Z,17.58
2023-02-03T09:30:28.716Z,20.60
2023-02-03T09:32:59.051Z,16.05
2023-02-03T09:35:29.544Z,16.30
2023-02-03T09:38:00.813Z,16.02
2023-02-03T09:40:33.349Z,20.13
2023-02-03T09:43:15.550Z,16.15
2023-02-03T09:45:44.229Z,21.48
2023-02-03T09:48:15.672Z,15.52
2023-02-03T09:50:45.092Z,19.40
2023-02-03T09:53:23.142Z,16.50
2023-02-03T09:55:51.934Z,14.52
2023-02-03T09:58:23.281Z,18.10
2023-02-03T10:03:27.775Z,12.77
2023-02-03T10:06:19.740Z,33.08
2023-02-03T10:08:58.297Z,16.33
2023-02-03T10:11:42.409Z,15.43
2023-02-03T10:14:24.325Z,15.52
2023-02-03T10:17:04.178Z,16.00
2023-02-03T10:19:40.420Z,15.52
2023-02-03T10:22:14.368Z,19.08
2023-02-03T10:24:46.592Z,14.70
2023-02-03T10:27:19.123Z,11.95
2023-02-03T10:29:54.609Z,11.63
2023-02-03T10:32:25.767Z,14.95
2023-02-03T10:34:54.541Z,25.60
2023-02-03T10:37:30.035Z,21.70
2023-02-03T10:40:00.357Z,37.20
2023-02-03T10:42:50.368Z,25.95
2023-02-03T10:45:21.606Z,20.73
2023-02-03T10:47:52.807Z,22.40
2023-02-03T10:50:23.931Z,18.00
2023-02-03T10:53:23.467Z,11.65
2023-02-03T10:56:00.703Z,16.92
2023-02-03T10:58:31.379Z,11.63
2023-02-03T11:01:09.140Z,13.48
2023-02-03T11:03:39.309Z,10.98
2023-02-03T11:06:11.077Z,12.27
2023-02-03T11:08:40.931Z,13.73
2023-02-03T11:11:10.859Z,15.70
2023-02-03T11:13:39.487Z,21.63
2023-02-03T11:16:15.467Z,16.80
2023-02-03T11:18:48.283Z,11.20
2023-02-03T11:21:19.143Z,16.75
2023-02-03T11:23:50.773Z,18.65
2023-02-03T11:26:21.740Z,11.68
2023-02-03T11:28:52.439Z,14.55
2023-02-03T11:31:25.528Z,12.75
2023-02-03T11:33:57.067Z,13.07
2023-02-03T11:36:28.494Z,14.75
2023-02-03T11:39:20.714Z,13.25
2023-02-03T11:41:50.137Z,10.45
2023-02-03T11:44:21.555Z,12.18
2023-02-03T11:46:54.782Z,14.63
2023-02-03T11:49:56.553Z,14.60
2023-02-03T11:52:38.070Z,14.63
2023-02-03T11:55:14.859Z,13.68
2023-02-03T11:57:48.416Z,11.77
2023-02-03T12:00:29.280Z,16.50
2023-02-03T12:03:22.462Z,17.77
2023-02-03T12:06:02.764Z,17.90
2023-02-03T12:08:45.070Z,19.10
2023-02-03T12:11:24.134Z,20.45
2023-02-03T12:14:02.371Z,27.98
2023-02-03T12:16:57.700Z,21.08
2023-02-03T12:19:36.361Z,20.38
2023-02-03T12:22:10.608Z,35.47
2023-02-03T12:24:46.613Z,29.00
2023-02-03T12:27:26.670Z,28.80
2023-02-03T12:29:59.287Z,26.45
2023-02-03T12:32:33.695Z,42.38
2023-02-03T12:35:15.281Z,19.75
2023-02-03T12:40:17.745Z,31.55
2023-02-03T12:42:49.792Z,21.25
2023-02-03T12:45:21.161Z,30.63
2023-02-03T12:47:53.211Z,24.92
2023-02-03T12:50:26.068Z,27.27
2023-02-03T12:52:57.278Z,16.60
2023-02-03T12:55:32.572Z,18.38
2023-02-03T12:58:04.305Z,19.20
2023-02-03T13:00:40.406Z,21.48
2023-02-03T13:03:20.286Z,15.73
2023-02-03T13:05:55.532Z,17.95
2023-02-03T13:08:29.829Z,13.73
2023-02-03T13:11:05.472Z,14.52
2023-02-03T13:13:39.172Z,16.75
2023-02-03T13:16:09.177Z,12.45
2023-02-03T13:18:40.523Z,12.88
2023-02-03T13:21:12.063Z,14.88
2023-02-03T13:26:30.853Z,11.00
2023-02-03T13:29:12.494Z,11.30
2023-02-03T13:31:49.599Z,11.00
2023-02-03T13:34:36.758Z,9.90
2023-02-03T13:37:15.323Z,12.75
2023-02-03T13:40:18.500Z,12.60
2023-02-03T13:42:49.984Z,17.73
2023-02-03T13:45:27.035Z,17.23
2023-02-03T13:47:58.242Z,25.55
2023-02-03T13:50:29.270Z,14.32
2023-02-03T13:53:01.766Z,17.13
2023-02-03T13:55:34.523Z,21.67
2023-02-03T13:58:03.309Z,11.13
2023-02-03T14:01:20.792Z,12.13
2023-02-03T14:03:50.379Z,11.93
2023-02-03T14:06:59.638Z,12.10
2023-02-03T14:09:43.353Z,10.85
2023-02-03T14:12:37.262Z,9.27
2023-02-03T14:15:21.221Z,11.43
2023-02-03T14:18:02.128Z,11.80
2023-02-03T14:20:52.808Z,14.73
2023-02-03T14:23:26.719Z,15.13
2023-02-03T14:25:59.903Z,14.35
2023-02-03T14:28:32.898Z,11.80
2023-02-03T14:31:12.712Z,12.52
2023-02-03T14:34:18.134Z,16.10
2023-02-03T14:36:53.145Z,11.98
2023-02-03T14:39:44.472Z,13.60
2023-02-03T14:45:00.013Z,11.00
2023-02-03T14:47:42.403Z,10.55
2023-02-03T14:50:21.721Z,8.32
2023-02-03T14:53:02.668Z,12.75
2023-02-03T14:55:46.439Z,13.68
2023-02-03T14:58:25.111Z,13.68
2023-02-03T15:00:55.146Z,12.82
2023-02-03T15:03:31.427Z,11.73
2023-02-03T15:06:03.508Z,12.52
2023-02-03T15:08:36.141Z,14.52
2023-02-03T15:11:27.380Z,15.40
2023-02-03T15:13:59.119Z,23.92
2023-02-03T15:16:28.101Z,20.17
2023-02-03T15:18:59.970Z,20.60
2023-02-03T15:21:28.249Z,24.33
2023-02-03T15:23:57.070Z,21.80
2023-02-03T15:26:27.157Z,23.30
2023-02-03T15:28:58.952Z,23.20
2023-02-03T15:31:34.034Z,23.17
2023-02-03T15:34:07.997Z,19.95
2023-02-03T15:36:43.373Z,16.70
2023-02-03T15:39:20.129Z,20.85
2023-02-03T15:41:51.025Z,18.92
2023-02-03T15:44:27.639Z,24.80
2023-02-03T15:46:56.378Z,27.00
2023-02-03T15:49:28.911Z,33.35
2023-02-03T15:52:00.243Z,33.80
2023-02-03T15:54:40.582Z,55.30
2023-02-03T15:57:11.726Z,33.80
2023-02-03T15:59:43.569Z,38.20
2023-02-03T16:02:17.974Z,30.60
2023-02-03T16:04:46.987Z,25.27
2023-02-03T16:07:18.584Z,24.00
2023-02-03T16:09:47.477Z,24.33
2023-02-03T16:12:20.512Z,27.50
2023-02-03T16:14:51.103Z,28.27
2023-02-03T16:17:28.954Z,32.20
2023-02-03T16:20:23.132Z,21.65
2023-02-03T16:23:13.467Z,20.92
2023-02-03T16:25:42.370Z,21.87
2023-02-03T16:28:34.990Z,23.00
2023-02-03T16:31:29.735Z,20.70
2023-02-03T16:34:15.677Z,23.27
2023-02-03T16:37:02.658Z,26.15
2023-02-03T16:39:49.043Z,21.85
2023-02-03T16:42:36.903Z,20.63
2023-02-03T16:45:25.437Z,17.27
2023-02-03T16:48:13.515Z,21.50
2023-02-03T16:51:08.330Z,26.27
2023-02-03T16:53:37.439Z,16.13
2023-02-03T16:56:06.499Z,16.67
2023-02-03T16:58:35.782Z,14.63
2023-02-03T17:01:05.776Z,17.38
2023-02-03T17:03:37.389Z,17.83
2023-02-03T17:06:07.787Z,12.32
2023-02-03T17:08:37.202Z,20.63
2023-02-03T17:11:07.604Z,20.30
2023-02-03T17:13:36.948Z,19.38
2023-02-03T17:16:10.910Z,18.65
2023-02-03T17:18:41.243Z,22.17
2023-02-03T17:21:11.249Z,21.25
2023-02-03T17:23:40.297Z,20.10
2023-02-03T17:26:08.808Z,21.42
2023-02-03T17:28:37.531Z,19.70
2023-02-03T17:31:08.017Z,19.38
2023-02-03T17:33:36.735Z,22.55
2023-02-03T17:36:09.933Z,24.15
2023-02-03T17:55:21.329Z,24.50
2023-02-03T17:57:49.603Z,19.40
2023-02-03T18:00:19.109Z,29.40
2023-02-03T18:02:50.991Z,24.13
2023-02-03T18:05:20.445Z,17.83
2023-02-03T18:07:50.466Z,18.05
2023-02-03T18:10:19.424Z,22.65
2023-02-03T18:12:47.875Z,21.00
2023-02-03T18:15:16.862Z,21.65
2023-02-03T18:17:45.248Z,21.50
2023-02-03T18:20:14.910Z,22.08
2023-02-03T18:22:46.112Z,21.80
2023-02-03T18:25:17.381Z,27.38
2023-02-03T18:27:45.908Z,23.10
2023-02-03T18:30:18.006Z,25.42
2023-02-03T18:32:47.454Z,22.05
2023-02-03T18:35:17.461Z,29.27
2023-02-03T18:37:46.139Z,26.77
2023-02-03T18:40:16.990Z,23.95
2023-02-03T18:42:45.560Z,28.57
2023-02-03T18:45:14.425Z,19.55
2023-02-03T18:47:42.817Z,22.50
2023-02-03T18:50:12.013Z,21.05
2023-02-03T18:52:40.704Z,19.40
2023-02-03T18:55:10.431Z,20.77
2023-02-03T18:57:40.403Z,22.80
2023-02-03T19:00:10.871Z,19.42
2023-02-03T19:02:39.288Z,23.30
2023-02-03T19:05:10.088Z,20.42
2023-02-03T19:07:38.931Z,21.93
2023-02-03T19:10:08.125Z,15.23
2023-02-03T19:12:36.407Z,18.73
2023-02-03T19:15:08.814Z,13.23
2023-02-03T19:17:38.274Z,13.55
2023-02-03T19:20:07.954Z,12.50
2023-02-03T19:22:36.354Z,19.25
2023-02-03T19:25:05.278Z,11.65
2023-02-03T19:27:33.689Z,17.27
2023-02-03T19:30:02.465Z,28.52
2023-02-03T19:32:32.403Z,20.10
2023-02-03T19:35:01.197Z,20.23
2023-02-03T19:37:29.743Z,17.85
2023-02-03T19:39:58.547Z,18.63
2023-02-03T19:42:27.175Z,21.67
2023-02-03T19:44:56.597Z,20.75
2023-02-03T19:47:25.187Z,19.90
2023-02-03T19:49:55.268Z,24.30
2023-02-03T19:52:23.644Z,19.70
2023-02-03T19:54:54.120Z,17.77
2023-02-03T19:57:22.541Z,26.02
2023-02-03T19:59:51.277Z,20.65
2023-02-03T20:02:20.240Z,20.75
2023-02-03T20:04:50.283Z,14.60
2023-02-03T20:07:20.313Z,14.60
2023-02-03T20:09:49.385Z,24.17
2023-02-03T20:12:18.100Z,18.30
2023-02-03T20:14:46.648Z,24.95
2023-02-03T20:17:15.369Z,20.98
2023-02-03T20:19:44.097Z,20.20
2023-02-03T20:22:12.624Z,22.63
2023-02-03T20:24:42.726Z,21.75
2023-02-03T20:27:11.082Z,25.10
2023-02-03T20:29:40.019Z,18.90
2023-02-03T20:32:09.496Z,20.48
2023-02-03T20:34:38.460Z,17.02
2023-02-03T20:37:08.113Z,24.40
2023-02-03T20:39:36.931Z,21.05
2023-02-03T20:42:12.602Z,20.85
2023-02-03T20:44:42.400Z,21.83
2023-02-03T20:47:12.100Z,19.15
2023-02-03T20:49:40.943Z,24.00
2023-02-03T20:52:14.537Z,16.05
2023-02-03T20:54:43.382Z,36.90
2023-02-03T20:57:15.027Z,55.08
2023-02-03T20:59:44.766Z,25.25
2023-02-03T21:02:23.192Z,25.35
2023-02-03T21:05:00.544Z,24.63
2023-02-03T21:07:31.358Z,17.63
2023-02-03T21:10:01.701Z,19.80
2023-02-03T21:12:31.725Z,25.75
2023-02-03T21:15:00.323Z,24.48
2023-02-03T21:17:28.707Z,28.92
2023-02-03T21:19:57.774Z,32.92
2023-02-03T21:22:27.677Z,31.67
2023-02-03T21:24:57.763Z,27.67
2023-02-03T21:27:32.534Z,25.58
2023-02-03T21:30:03.245Z,24.67
2023-02-03T21:32:36.225Z,19.20
2023-02-03T21:35:18.953Z,16.90
2023-02-03T21:37:47.764Z,21.70
2023-02-03T21:40:27.355Z,25.92
2023-02-03T21:42:58.014Z,19.38
2023-02-03T21:45:36.761Z,17.80
2023-02-03T21:48:39.882Z,20.17
2023-02-03T21:51:16.283Z,20.83
2023-02-03T21:53:49.330Z,18.80
2023-02-03T21:56:20.074Z,14.65
2023-02-03T21:58:50.926Z,18.13
2023-02-03T22:01:22.965Z,13.20
2023-02-03T22:03:53.195Z,16.85
2023-02-03T22:06:24.569Z,15.80
2023-02-03T22:08:54.547Z,25.08
2023-02-03T22:11:24.115Z,16.35
2023-02-03T22:13:54.136Z,14.65
2023-02-03T22:16:22.937Z,13.93
2023-02-03T22:18:51.651Z,15.18
2023-02-03T22:21:20.610Z,12.82
2023-02-03T22:23:49.338Z,12.65
2023-02-03T22:26:18.828Z,16.33
2023-02-03T22:28:47.585Z,15.00
2023-02-03T22:31:19.896Z,15.23
2023-02-03T22:33:48.825Z,17.45
2023-02-03T22:36:17.504Z,11.65
2023-02-03T22:38:46.080Z,15.98
2023-02-03T22:41:14.832Z,12.32
2023-02-03T22:43:43.278Z,8.35
2023-02-03T22:46:12.585Z,14.27
2023-02-03T22:48:42.471Z,10.57
2023-02-03T22:51:11.091Z,10.23
2023-02-03T22:53:40.082Z,12.27
2023-02-03T22:56:09.402Z,14.55
2023-02-03T22:58:37.786Z,12.32
2023-02-03T23:01:06.765Z,12.07
2023-02-03T23:03:35.415Z,11.50
2023-02-03T23:06:05.464Z,8.60
2023-02-03T23:08:34.182Z,8.68
2023-02-03T23:11:02.966Z,12.82
2023-02-03T23:13:31.399Z,10.40
2023-02-03T23:16:00.083Z,9.00
2023-02-03T23:18:28.445Z,8.95
2023-02-03T23:20:57.380Z,10.02
2023-02-03T23:23:27.042Z,11.77
2023-02-03T23:25:55.785Z,9.60
2023-02-03T23:28:24.300Z,7.43
2023-02-03T23:30:53.033Z,10.45
2023-02-03T23:33:21.630Z,10.30
2023-02-03T23:35:50.178Z,10.93
2023-02-03T23:38:18.976Z,14.25
2023-02-03T23:40:49.368Z,11.45
2023-02-03T23:43:17.827Z,12.45
2023-02-03T23:45:46.942Z,12.00
2023-02-03T23:48:17.489Z,10.38
2023-02-03T23:50:46.434Z,8.52
2023-02-03T23:53:14.937Z,7.95
2023-02-03T23:55:43.511Z,8.30
2023-02-03T23:58:13.402Z,20.33
